Terminal Aerodrome Forecast
Issued by NWS

Home | Current Version | Previous Version | Text Only | Print | Product List | Glossary On
Versions: 1 2 3 4 5 6 7 8 9 10 11 12 13 14 15 16 17 18 19 20 21 22 23 24 25 26 27 28 29 30 31
000
FTPA31 PHFO 011900 AAA
TAFOGG
TAF AMD
PHOG 011954Z 0120/0218 03011KT P6SM VCSH SCT015 BKN040
      TEMPO 0120/0122 3SM -SHRA BR BKN008 BKN015
     FM020800 15005KT P6SM FEW030 SCT050
      AMD LTD TO WX VIS AND WIND 0209/0216=

USA.gov is the U.S. government's official web portal to all federal, state and local government web resources and services.